createdAt,value
2018-04-17T00:00:29.601Z,101583.84
2018-04-17T00:02:55.559Z,101582.53
2018-04-17T00:05:21.481Z,101583.34
2018-04-17T00:07:47.377Z,101582.87
2018-04-17T00:10:13.273Z,101584.64
2018-04-17T00:12:39.235Z,101589.45
2018-04-17T00:15:05.236Z,101592.90
2018-04-17T00:17:31.119Z,101596.41
2018-04-17T00:19:57.060Z,101595.16
2018-04-17T00:22:22.946Z,101599.58
2018-04-17T00:24:48.831Z,101604.03
2018-04-17T00:27:14.928Z,101605.37
2018-04-17T00:29:40.803Z,101615.08
2018-04-17T00:32:06.680Z,101609.84
2018-04-17T00:34:32.638Z,101604.67
2018-04-17T00:36:58.513Z,101613.97
2018-04-17T00:39:24.486Z,101617.02
2018-04-17T00:41:50.596Z,101626.23
2018-04-17T00:44:17.542Z,101627.56
2018-04-17T00:46:43.429Z,101633.77
2018-04-17T00:49:09.375Z,101634.16
2018-04-17T00:51:35.817Z,101640.78
2018-04-17T00:54:04.719Z,101651.31
2018-04-17T00:56:30.655Z,101654.84
2018-04-17T00:58:56.541Z,101657.15
2018-04-17T01:01:22.419Z,101662.35
2018-04-17T01:03:48.440Z,101660.23
2018-04-17T01:06:14.312Z,101666.38
2018-04-17T01:08:40.208Z,101668.18
2018-04-17T01:11:06.293Z,101672.12
2018-04-17T01:13:32.168Z,101666.36
2018-04-17T01:15:58.146Z,101674.71
2018-04-17T01:18:27.205Z,101659.03
2018-04-17T01:20:53.109Z,101660.77
2018-04-17T01:23:19.005Z,101666.91
2018-04-17T01:25:44.942Z,101670.38
2018-04-17T01:28:10.906Z,101670.85
2018-04-17T01:30:36.780Z,101672.19
2018-04-17T01:33:02.700Z,101678.72
2018-04-17T01:35:28.588Z,101681.80
2018-04-17T01:37:55.565Z,101691.86
2018-04-17T01:40:21.565Z,101691.93
2018-04-17T01:42:47.435Z,101694.95
2018-04-17T01:45:13.327Z,101691.88
2018-04-17T01:47:39.251Z,101700.26
2018-04-17T01:50:05.152Z,101689.26
2018-04-17T01:52:31.189Z,101686.23
2018-04-17T01:54:57.133Z,101685.37
2018-04-17T01:57:23.060Z,101688.47
2018-04-17T01:59:48.977Z,101698.07
2018-04-17T02:02:14.912Z,101696.37
2018-04-17T02:04:43.722Z,101706.88
2018-04-17T02:07:09.588Z,101699.88
2018-04-17T02:09:35.688Z,101702.10
2018-04-17T02:12:01.580Z,101703.03
2018-04-17T02:14:27.503Z,101705.22
2018-04-17T02:16:53.573Z,101704.34
2018-04-17T02:19:19.453Z,101714.02
2018-04-17T02:21:45.324Z,101721.42
2018-04-17T02:24:11.249Z,101720.58
2018-04-17T02:26:37.188Z,101731.56
2018-04-17T02:29:03.160Z,101735.06
2018-04-17T02:31:29.075Z,101735.91
2018-04-17T02:33:55.024Z,101744.26
2018-04-17T02:36:20.892Z,101750.39
2018-04-17T02:38:46.942Z,101743.41
2018-04-17T02:41:12.907Z,101745.63
2018-04-17T02:43:38.777Z,101737.75
2018-04-17T02:46:04.729Z,101753.50
2018-04-17T02:48:30.611Z,101749.16
2018-04-17T02:50:56.520Z,101747.84
2018-04-17T02:53:22.523Z,101747.85
2018-04-17T02:55:48.384Z,101744.34
2018-04-17T02:58:14.279Z,101748.73
2018-04-17T03:00:40.203Z,101756.19
2018-04-17T03:03:06.096Z,101750.48
2018-04-17T03:05:32.076Z,101749.63
2018-04-17T03:07:57.971Z,101754.01
2018-04-17T03:10:23.847Z,101760.12
2018-04-17T03:12:49.740Z,101754.45
2018-04-17T03:15:15.669Z,101765.83
2018-04-17T03:17:41.629Z,101757.49
2018-04-17T03:20:07.529Z,101763.61
2018-04-17T03:22:33.443Z,101768.87
2018-04-17T03:24:59.356Z,101773.66
2018-04-17T03:27:25.257Z,101775.87
2018-04-17T03:29:51.288Z,101782.84
2018-04-17T03:32:17.172Z,101773.22
2018-04-17T03:34:43.080Z,101774.08
2018-04-17T03:37:09.023Z,101787.17
2018-04-17T03:39:34.897Z,101784.56
2018-04-17T03:42:00.880Z,101788.92
2018-04-17T03:44:26.799Z,101798.05
2018-04-17T03:46:52.690Z,101802.41
2018-04-17T03:49:18.565Z,101808.95
2018-04-17T03:51:45.403Z,101805.44
2018-04-17T03:54:11.400Z,101806.72
2018-04-17T03:56:37.283Z,101808.91
2018-04-17T03:59:03.227Z,101797.11
2018-04-17T04:01:29.138Z,101804.52
2018-04-17T04:03:55.105Z,101815.88
2018-04-17T04:06:21.193Z,101819.83
2018-04-17T04:08:47.071Z,101823.28
2018-04-17T04:11:12.952Z,101827.20
2018-04-17T04:13:39.042Z,101829.38
2018-04-17T04:16:05.040Z,101825.02
2018-04-17T04:21:47.096Z,101829.31
2018-04-17T04:24:25.351Z,101834.14
2018-04-17T04:26:51.324Z,101833.69
2018-04-17T04:29:17.285Z,101840.23
2018-04-17T04:31:43.216Z,101848.95
2018-04-17T04:34:09.092Z,101856.81
2018-04-17T04:36:34.996Z,101851.11
2018-04-17T04:39:00.998Z,101851.13
2018-04-17T04:41:27.005Z,101857.25
2018-04-17T04:43:53.733Z,101860.81
2018-04-17T04:46:19.659Z,101864.73
2018-04-17T04:48:45.556Z,101872.20
2018-04-17T04:51:11.526Z,101882.68
2018-04-17T04:53:37.557Z,101883.12
2018-04-17T04:56:03.515Z,101888.83
2018-04-17T04:58:29.403Z,101891.45
2018-04-17T05:00:55.332Z,101894.11
2018-04-17T05:03:21.256Z,101902.01
2018-04-17T05:05:47.219Z,101904.23
2018-04-17T05:08:13.135Z,101908.66
2018-04-17T05:10:38.997Z,101924.87
2018-04-17T05:13:04.897Z,101920.11
2018-04-17T05:15:30.872Z,101928.88
2018-04-17T05:17:56.830Z,101934.10
2018-04-17T05:20:22.699Z,101943.31
2018-04-17T05:22:48.735Z,101950.31
2018-04-17T05:25:14.597Z,101944.23
2018-04-17T05:27:40.552Z,101964.38
2018-04-17T05:30:06.560Z,101962.22
2018-04-17T05:32:32.411Z,101971.88
2018-04-17T05:34:58.263Z,101977.16
2018-04-17T05:37:24.187Z,101977.62
2018-04-17T05:39:51.151Z,101977.19
2018-04-17T05:42:17.176Z,101991.23
2018-04-17T05:44:43.110Z,101985.98
2018-04-17T05:47:08.987Z,101989.06
2018-04-17T05:49:34.942Z,101989.48
2018-04-17T05:52:00.903Z,101998.68
2018-04-17T05:54:26.895Z,101999.54
2018-04-17T05:56:52.875Z,102002.19
2018-04-17T05:59:19.109Z,102007.44
2018-04-17T06:01:45.876Z,102008.74
2018-04-17T06:04:11.836Z,102014.89
2018-04-17T06:06:37.840Z,102019.27
2018-04-17T06:09:03.760Z,102013.55
2018-04-17T06:11:29.638Z,102025.84
2018-04-17T06:13:55.559Z,102025.38
2018-04-17T06:16:21.498Z,102034.98
2018-04-17T06:18:47.546Z,102029.27
2018-04-17T06:21:13.458Z,102037.14
2018-04-17T06:23:39.327Z,102038.83
2018-04-17T06:26:05.249Z,102043.19
2018-04-17T06:28:31.196Z,102040.95
2018-04-17T06:30:57.222Z,102045.30
2018-04-17T06:33:23.108Z,102052.76
2018-04-17T06:35:49.019Z,102057.19
2018-04-17T06:38:15.948Z,102056.79
2018-04-17T06:40:41.881Z,102070.28
2018-04-17T06:43:07.980Z,102073.65
2018-04-17T06:45:34.012Z,102082.97
2018-04-17T06:47:59.876Z,102097.75
2018-04-17T06:50:25.934Z,102097.77
2018-04-17T06:52:51.924Z,102114.95
2018-04-17T06:55:17.886Z,102105.80
2018-04-17T06:57:44.927Z,102107.83
2018-04-17T07:00:10.832Z,102109.92
2018-04-17T07:02:36.712Z,102106.02
2018-04-17T07:05:03.585Z,102102.52
2018-04-17T07:07:29.578Z,102112.56
2018-04-17T07:09:55.443Z,102116.12
2018-04-17T07:12:21.463Z,102111.73
2018-04-17T07:14:47.339Z,102119.84
2018-04-17T07:17:13.288Z,102118.89
2018-04-17T07:19:48.716Z,102126.14
2018-04-17T07:22:14.588Z,102125.61
2018-04-17T07:24:42.578Z,102134.21
2018-04-17T07:27:09.067Z,102131.91
2018-04-17T07:29:34.991Z,102140.11
2018-04-17T07:32:04.393Z,102150.64
2018-04-17T07:34:30.489Z,102154.28
2018-04-17T07:36:56.364Z,102153.03
2018-04-17T07:39:22.255Z,102152.83
2018-04-17T07:41:48.233Z,102155.57
2018-04-17T07:44:14.287Z,102157.44
2018-04-17T07:46:40.179Z,102148.80
2018-04-17T07:49:06.132Z,102158.25
2018-04-17T07:51:33.122Z,102156.86
2018-04-17T07:54:01.956Z,102160.44
2018-04-17T07:56:33.680Z,102163.31
2018-04-17T07:58:59.593Z,102158.87
2018-04-17T08:01:25.473Z,102164.67
2018-04-17T08:03:51.397Z,102164.97
2018-04-17T08:06:19.633Z,102160.13
2018-04-17T08:08:48.909Z,102172.89
2018-04-17T08:11:15.294Z,102170.00
2018-04-17T08:13:41.247Z,102169.19
2018-04-17T08:16:07.191Z,102170.16
2018-04-17T08:18:33.769Z,102171.52
2018-04-17T08:20:59.872Z,102180.77
2018-04-17T08:23:26.086Z,102180.38
2018-04-17T08:25:52.175Z,102185.53
2018-04-17T08:28:18.056Z,102186.29
2018-04-17T08:30:45.068Z,102189.02
2018-04-17T08:33:11.068Z,102192.13
2018-04-17T08:35:36.936Z,102195.72
2018-04-17T08:38:02.829Z,102188.44
2018-04-17T08:40:28.918Z,102194.80
2018-04-17T08:42:55.128Z,102194.19
2018-04-17T08:45:21.156Z,102191.11
2018-04-17T08:47:47.577Z,102192.53
2018-04-17T08:50:13.466Z,102199.33
2018-04-17T08:52:39.331Z,102195.80
2018-04-17T08:55:05.380Z,102203.86
2018-04-17T08:57:31.412Z,102202.97
2018-04-17T08:59:57.564Z,102200.98
2018-04-17T09:02:24.556Z,102202.91
2018-04-17T09:04:51.521Z,102200.23
2018-04-17T09:07:17.824Z,102202.15
2018-04-17T09:09:43.831Z,102201.73
2018-04-17T09:12:09.713Z,102201.03
2018-04-17T09:14:35.608Z,102196.34
2018-04-17T09:17:01.571Z,102201.09
2018-04-17T09:19:27.984Z,102202.92
2018-04-17T09:21:53.972Z,102207.09
2018-04-17T09:24:19.868Z,102207.77
2018-04-17T09:26:45.808Z,102208.50
2018-04-17T09:29:11.696Z,102209.76
2018-04-17T09:31:38.120Z,102213.61
2018-04-17T09:34:04.156Z,102207.36
2018-04-17T09:36:30.032Z,102210.44
2018-04-17T09:38:56.354Z,102213.20
2018-04-17T09:41:22.268Z,102229.21
2018-04-17T09:43:48.192Z,102227.00
2018-04-17T09:46:14.188Z,102227.42
2018-04-17T09:48:41.300Z,102225.33
2018-04-17T09:51:07.180Z,102234.81
2018-04-17T09:53:33.115Z,102224.00
2018-04-17T09:56:02.823Z,102225.03
2018-04-17T09:58:28.863Z,102231.44
2018-04-17T10:00:57.671Z,102227.16
2018-04-17T10:03:23.552Z,102224.09
2018-04-17T10:05:49.453Z,102216.41
2018-04-17T10:08:15.418Z,102213.20
2018-04-17T10:10:41.436Z,102216.75
2018-04-17T10:13:07.305Z,102216.30
2018-04-17T10:15:33.212Z,102223.19
2018-04-17T10:17:59.080Z,102219.78
2018-04-17T10:20:27.155Z,102215.60
2018-04-17T10:22:53.160Z,102216.02
2018-04-17T10:25:19.042Z,102221.19
2018-04-17T10:27:44.924Z,102217.91
2018-04-17T10:30:10.858Z,102215.33
2018-04-17T10:32:36.723Z,102220.02
2018-04-17T10:35:02.650Z,102219.80
2018-04-17T10:37:28.647Z,102219.48
2018-04-17T10:39:54.530Z,102211.47
2018-04-17T10:42:20.415Z,102208.77
2018-04-17T10:44:46.348Z,102202.48
2018-04-17T10:47:12.208Z,102204.56
2018-04-17T10:49:39.191Z,102209.45
2018-04-17T10:52:05.120Z,102203.09
2018-04-17T10:54:30.991Z,102203.44
2018-04-17T10:56:56.889Z,102199.08
2018-04-17T10:59:22.804Z,102200.83
2018-04-17T11:01:48.753Z,102197.73
2018-04-17T11:04:15.053Z,102200.00
2018-04-17T11:06:41.038Z,102196.77
2018-04-17T11:09:06.916Z,102206.37
2018-04-17T11:11:32.781Z,102202.59
2018-04-17T11:13:58.710Z,102205.72
2018-04-17T11:16:24.567Z,102203.13
2018-04-17T11:18:51.196Z,102195.69
2018-04-17T11:21:17.103Z,102205.22
2018-04-17T11:23:43.085Z,102199.20
2018-04-17T11:26:09.573Z,102198.45
2018-04-17T11:28:35.504Z,102205.06
2018-04-17T11:31:01.405Z,102204.62
2018-04-17T11:33:27.296Z,102196.17
2018-04-17T11:35:53.328Z,102201.83
2018-04-17T11:38:19.205Z,102204.13
2018-04-17T11:40:45.070Z,102206.49
2018-04-17T11:43:10.996Z,102205.37
2018-04-17T11:45:36.872Z,102208.34
2018-04-17T11:48:02.832Z,102207.77
2018-04-17T11:50:28.751Z,102208.34
2018-04-17T11:52:54.661Z,102211.99
2018-04-17T11:55:20.533Z,102213.61
2018-04-17T11:57:46.458Z,102218.60
2018-04-17T12:00:12.508Z,102227.31
2018-04-17T12:02:38.360Z,102222.53
2018-04-17T12:05:04.416Z,102223.76
2018-04-17T12:07:30.305Z,102232.77
2018-04-17T12:09:56.189Z,102243.52
2018-04-17T12:12:22.183Z,102234.23
2018-04-17T12:14:48.070Z,102247.05
2018-04-17T12:17:13.988Z,102245.14
2018-04-17T12:19:39.896Z,102252.43
2018-04-17T12:22:05.759Z,102260.89
2018-04-17T12:24:31.727Z,102257.02
2018-04-17T12:26:57.640Z,102258.77
2018-04-17T12:29:23.503Z,102262.45
2018-04-17T12:31:49.378Z,102262.66
2018-04-17T12:34:15.303Z,102254.81
2018-04-17T12:36:41.272Z,102256.04
2018-04-17T12:39:07.136Z,102257.69
2018-04-17T12:41:33.451Z,102259.58
2018-04-17T12:43:59.328Z,102267.95
2018-04-17T12:46:25.220Z,102253.36
2018-04-17T12:48:51.208Z,102257.33
2018-04-17T12:51:17.072Z,102254.63
2018-04-17T12:53:42.951Z,102260.91
2018-04-17T12:56:09.033Z,102254.91
2018-04-17T12:58:34.901Z,102246.55
2018-04-17T13:01:00.863Z,102254.69
2018-04-17T13:03:26.813Z,102257.31
2018-04-17T13:05:52.676Z,102251.80
2018-04-17T13:08:18.561Z,102250.77
2018-04-17T13:10:44.485Z,102252.08
2018-04-17T13:13:10.443Z,102245.27
2018-04-17T13:15:36.329Z,102246.89
2018-04-17T13:18:02.244Z,102254.64
2018-04-17T13:20:28.110Z,102249.64
2018-04-17T13:22:54.004Z,102244.46
2018-04-17T13:25:20.342Z,102236.16
2018-04-17T13:27:46.210Z,102238.47
2018-04-17T13:30:12.196Z,102232.37
2018-04-17T13:32:38.103Z,102237.07
2018-04-17T13:35:03.959Z,102240.76
2018-04-17T13:37:29.951Z,102239.89
2018-04-17T13:39:55.862Z,102233.58
2018-04-17T13:42:21.791Z,102239.23
2018-04-17T13:44:47.619Z,102235.06
2018-04-17T13:47:13.552Z,102225.66
2018-04-17T13:49:39.507Z,102225.38
2018-04-17T13:52:05.376Z,102225.00
2018-04-17T13:54:44.968Z,102220.81
2018-04-17T13:57:10.861Z,102217.57
2018-04-17T13:59:36.736Z,102223.61
2018-04-17T14:02:02.761Z,102225.72
2018-04-17T14:04:28.676Z,102213.08
2018-04-17T14:06:54.605Z,102219.91
2018-04-17T14:09:20.530Z,102218.45
2018-04-17T14:11:46.846Z,102220.98
2018-04-17T14:14:12.892Z,102218.69
2018-04-17T14:16:38.827Z,102221.34
2018-04-17T14:19:04.710Z,102220.18
2018-04-17T14:21:30.607Z,102221.92
2018-04-17T14:23:56.560Z,102219.16
2018-04-17T14:26:22.539Z,102218.05
2018-04-17T14:28:48.424Z,102223.79
2018-04-17T14:31:14.340Z,102231.23
2018-04-17T14:33:40.528Z,102229.81
2018-04-17T14:36:06.408Z,102239.54
2018-04-17T14:38:32.412Z,102230.47
2018-04-17T14:40:58.290Z,102240.69
2018-04-17T14:43:24.228Z,102233.41
2018-04-17T14:45:50.185Z,102244.34
2018-04-17T14:48:16.056Z,102240.37
2018-04-17T14:50:42.044Z,102245.34
2018-04-17T14:53:07.984Z,102243.87
2018-04-17T14:55:33.860Z,102238.47
2018-04-17T14:57:59.760Z,102244.15
2018-04-17T15:00:25.696Z,102247.18
2018-04-17T15:02:51.706Z,102243.39
2018-04-17T15:05:17.588Z,102241.11
2018-04-17T15:07:43.500Z,102242.84
2018-04-17T15:10:09.381Z,102238.62
2018-04-17T15:12:35.255Z,102242.90
2018-04-17T15:15:01.280Z,102237.44
2018-04-17T15:17:27.132Z,102235.66
2018-04-17T15:19:52.987Z,102234.78
2018-04-17T15:22:19.200Z,102233.22
2018-04-17T15:24:45.084Z,102238.68
2018-04-17T15:27:11.057Z,102239.27
2018-04-17T15:29:37.209Z,102244.48
2018-04-17T15:32:03.088Z,102241.03
2018-04-17T15:34:29.056Z,102245.48
2018-04-17T15:36:54.985Z,102242.97
2018-04-17T15:39:20.919Z,102248.27
2018-04-17T15:41:46.799Z,102251.80
2018-04-17T15:44:12.723Z,102253.37
2018-04-17T15:46:38.601Z,102254.95
2018-04-17T15:49:04.474Z,102253.31
2018-04-17T15:51:30.504Z,102258.04
2018-04-17T15:53:56.402Z,102259.26
2018-04-17T15:56:22.294Z,102264.77
2018-04-17T15:58:48.229Z,102260.33
2018-04-17T16:01:14.115Z,102261.86
2018-04-17T16:03:40.915Z,102258.30
2018-04-17T16:06:06.840Z,102249.12
2018-04-17T16:08:32.704Z,102251.85
2018-04-17T16:10:58.600Z,102256.08
2018-04-17T16:13:24.794Z,102259.84
2018-04-17T16:15:50.760Z,102260.00
2018-04-17T16:18:16.624Z,102258.31
2018-04-17T16:20:42.537Z,102259.59
2018-04-17T16:23:08.409Z,102258.28
2018-04-17T16:25:34.309Z,102257.60
2018-04-17T16:28:00.324Z,102264.05
2018-04-17T16:30:26.237Z,102261.19
2018-04-17T16:32:52.123Z,102254.86
2018-04-17T16:35:18.036Z,102261.77
2018-04-17T16:37:43.977Z,102253.78
2018-04-17T16:40:09.952Z,102258.64
2018-04-17T16:42:35.896Z,102267.37
2018-04-17T16:45:01.805Z,102264.09
2018-04-17T16:47:27.736Z,102266.09
2018-04-17T16:49:53.664Z,102273.73
2018-04-17T16:52:19.653Z,102276.03
2018-04-17T16:54:45.615Z,102268.45
2018-04-17T16:57:11.870Z,102270.88
2018-04-17T16:59:37.770Z,102273.78
2018-04-17T17:02:03.667Z,102270.31
2018-04-17T17:04:29.677Z,102271.71
2018-04-17T17:06:55.552Z,102263.30
2018-04-17T17:09:21.419Z,102268.29
2018-04-17T17:11:47.361Z,102273.20
2018-04-17T17:14:13.231Z,102274.05
2018-04-17T17:16:39.183Z,102271.64
2018-04-17T17:19:05.117Z,102267.35
2018-04-17T17:21:30.991Z,102275.39
2018-04-17T17:23:56.869Z,102270.91
2018-04-17T17:26:22.803Z,102273.20
2018-04-17T17:28:48.746Z,102267.09
2018-04-17T17:31:14.604Z,102275.53
2018-04-17T17:33:40.524Z,102282.55
2018-04-17T17:36:06.410Z,102292.20
2018-04-17T17:38:32.304Z,102291.48
2018-04-17T17:40:58.321Z,102298.54
2018-04-17T17:43:24.224Z,102297.92
2018-04-17T17:45:50.088Z,102299.12
2018-04-17T17:48:15.992Z,102306.48
2018-04-17T17:50:41.883Z,102312.08
2018-04-17T17:53:08.016Z,102322.09
2018-04-17T17:55:33.975Z,102323.68
2018-04-17T17:57:59.849Z,102338.11
2018-04-17T18:00:25.745Z,102340.55
2018-04-17T18:02:52.056Z,102346.53
2018-04-17T18:05:18.054Z,102346.78
2018-04-17T18:07:43.952Z,102346.07
2018-04-17T18:10:13.535Z,102351.08
2018-04-17T18:12:39.411Z,102357.47
2018-04-17T18:15:05.275Z,102359.36
2018-04-17T18:17:31.283Z,102362.11
2018-04-17T18:19:57.144Z,102365.34
2018-04-17T18:22:23.008Z,102375.60
2018-04-17T18:24:48.927Z,102372.23
2018-04-17T18:27:14.798Z,102374.98
2018-04-17T18:29:40.772Z,102375.47
2018-04-17T18:32:06.699Z,102376.45
2018-04-17T18:34:32.574Z,102385.80
2018-04-17T18:36:58.505Z,102398.22
2018-04-17T18:39:24.451Z,102398.73
2018-04-17T18:41:50.455Z,102403.66
2018-04-17T18:44:16.328Z,102403.28
2018-04-17T18:46:42.236Z,102407.31
2018-04-17T18:49:08.144Z,102401.61
2018-04-17T18:51:34.009Z,102403.42
2018-04-17T18:54:00.175Z,102410.53
2018-04-17T18:56:26.039Z,102415.36
2018-04-17T18:58:51.916Z,102413.66
2018-04-17T19:01:17.992Z,102411.94
2018-04-17T19:03:43.886Z,102414.16
2018-04-17T19:06:09.855Z,102408.48
2018-04-17T19:08:35.800Z,102412.92
2018-04-17T19:11:01.677Z,102403.73
2018-04-17T19:13:28.592Z,102409.02
2018-04-17T19:15:54.482Z,102413.46
2018-04-17T19:18:20.485Z,102428.02
2018-04-17T19:20:46.353Z,102421.02
2018-04-17T19:23:12.296Z,102418.81
2018-04-17T19:25:38.251Z,102421.89
2018-04-17T19:28:04.136Z,102419.73
2018-04-17T19:30:30.179Z,102424.56
2018-04-17T19:32:56.081Z,102429.44
2018-04-17T19:35:21.964Z,102434.73
2018-04-17T19:37:48.356Z,102435.61
2018-04-17T19:40:14.269Z,102431.24
2018-04-17T19:42:40.283Z,102443.11
2018-04-17T19:45:06.188Z,102440.05
2018-04-17T19:47:32.083Z,102440.07
2018-04-17T19:49:57.956Z,102443.13
2018-04-17T19:52:23.899Z,102452.38
2018-04-17T19:54:49.977Z,102450.61
2018-04-17T19:57:15.843Z,102457.63
2018-04-17T19:59:41.749Z,102464.63
2018-04-17T20:02:07.627Z,102460.26
2018-04-17T20:04:33.505Z,102456.31
2018-04-17T20:06:59.892Z,102471.22
2018-04-17T20:09:26.005Z,102473.43
2018-04-17T20:11:51.868Z,102472.53
2018-04-17T20:14:17.783Z,102470.36
2018-04-17T20:16:43.644Z,102473.41
2018-04-17T20:19:09.604Z,102475.59
2018-04-17T20:21:35.520Z,102471.23
2018-04-17T20:24:03.502Z,102474.28
2018-04-17T20:26:29.744Z,102468.14
2018-04-17T20:28:55.700Z,102474.27
2018-04-17T20:31:21.650Z,102472.94
2018-04-17T20:33:47.555Z,102472.95
2018-04-17T20:36:13.477Z,102469.41
2018-04-17T20:38:39.383Z,102480.83
2018-04-17T20:41:05.259Z,102482.95
2018-04-17T20:43:31.300Z,102483.86
2018-04-17T20:45:57.174Z,102483.45
2018-04-17T20:48:23.033Z,102483.87
2018-04-17T20:50:48.971Z,102490.02
2018-04-17T20:53:14.870Z,102496.17
2018-04-17T20:55:40.839Z,102492.20
2018-04-17T20:58:06.778Z,102490.42
2018-04-17T21:00:32.770Z,102487.78
2018-04-17T21:02:58.631Z,102494.80
2018-04-17T21:05:24.553Z,102492.13
2018-04-17T21:07:50.550Z,102488.61
2018-04-17T21:10:16.435Z,102485.09
2018-04-17T21:12:42.698Z,102492.11
2018-04-17T21:15:08.581Z,102498.66
2018-04-17T21:17:34.468Z,102502.56
2018-04-17T21:20:00.472Z,102503.86
2018-04-17T21:22:26.367Z,102502.97
2018-04-17T21:24:52.308Z,102501.64
2018-04-17T21:27:18.221Z,102505.97
2018-04-17T21:29:44.674Z,102503.34
2018-04-17T21:32:10.621Z,102511.19
2018-04-17T21:34:36.535Z,102512.95
2018-04-17T21:37:02.465Z,102518.63
2018-04-17T21:39:28.373Z,102510.27
2018-04-17T21:41:54.306Z,102513.34
2018-04-17T21:44:20.340Z,102515.50
2018-04-17T21:46:46.245Z,102515.50
2018-04-17T21:49:12.230Z,102511.48
2018-04-17T21:51:38.095Z,102507.94
2018-04-17T21:54:03.970Z,102511.46
2018-04-17T21:56:29.968Z,102519.31
2018-04-17T21:58:55.863Z,102517.98
2018-04-17T22:01:27.788Z,102524.52
2018-04-17T22:03:53.697Z,102527.54
2018-04-17T22:06:19.571Z,102534.08
2018-04-17T22:08:45.544Z,102537.16
2018-04-17T22:11:11.467Z,102539.82
2018-04-17T22:13:37.456Z,102549.84
2018-04-17T22:16:03.720Z,102551.13
2018-04-17T22:18:30.134Z,102546.75
2018-04-17T22:20:56.976Z,102549.78
2018-04-17T22:23:23.333Z,102548.44
2018-04-17T22:25:49.738Z,102547.96
2018-04-17T22:28:15.656Z,102545.77
2018-04-17T22:30:42.100Z,102545.29
2018-04-17T22:33:08.495Z,102554.47
2018-04-17T22:35:34.762Z,102554.04
2018-04-17T22:38:00.855Z,102557.47
2018-04-17T22:40:27.429Z,102557.45
2018-04-17T22:42:53.829Z,102565.25
2018-04-17T22:45:19.833Z,102572.23
2018-04-17T22:47:46.668Z,102573.07
2018-04-17T22:50:13.064Z,102576.63
2018-04-17T22:52:39.485Z,102573.13
2018-04-17T22:55:05.490Z,102570.84
2018-04-17T22:57:31.901Z,102571.68
2018-04-17T22:59:57.853Z,102570.75
2018-04-17T23:02:24.088Z,102572.04
2018-04-17T23:04:50.497Z,102573.31
2018-04-17T23:07:16.856Z,102574.59
2018-04-17T23:09:43.024Z,102576.33
2018-04-17T23:12:08.915Z,102566.23
2018-04-17T23:14:34.912Z,102567.11
2018-04-17T23:17:00.775Z,102567.55
2018-04-17T23:19:26.644Z,102563.17
2018-04-17T23:21:52.602Z,102556.16
2018-04-17T23:24:18.504Z,102562.28
2018-04-17T23:26:44.429Z,102555.70
2018-04-17T23:29:10.302Z,102558.27
2018-04-17T23:31:36.210Z,102566.14
2018-04-17T23:34:02.200Z,102571.80
2018-04-17T23:36:28.066Z,102577.09
2018-04-17T23:38:54.022Z,102571.30
2018-04-17T23:41:19.897Z,102567.70
2018-04-17T23:43:45.773Z,102563.31
2018-04-17T23:46:11.870Z,102557.65
2018-04-17T23:48:37.744Z,102567.33
2018-04-17T23:51:03.663Z,102559.42
2018-04-17T23:53:29.592Z,102562.43
2018-04-17T23:55:55.540Z,102564.16
2018-04-17T23:58:21.551Z,102555.85
